createdAt,value
2019-01-23T00:00:20.265Z,21.70
2019-01-23T00:02:48.690Z,24.80
2019-01-23T00:05:17.259Z,23.00
2019-01-23T00:07:45.697Z,24.47
2019-01-23T00:10:14.183Z,23.50
2019-01-23T00:12:42.656Z,21.97
2019-01-23T00:15:11.220Z,22.50
2019-01-23T00:17:39.660Z,23.40
2019-01-23T00:20:08.625Z,21.40
2019-01-23T00:22:37.081Z,26.17
2019-01-23T00:25:08.444Z,24.60
2019-01-23T00:27:38.424Z,24.80
2019-01-23T00:30:09.957Z,24.53
2019-01-23T00:32:38.406Z,21.40
2019-01-23T00:35:07.471Z,23.83
2019-01-23T00:37:35.909Z,24.03
2019-01-23T00:40:07.056Z,23.90
2019-01-23T00:42:35.508Z,23.57
2019-01-23T00:45:05.500Z,22.37
2019-01-23T00:47:33.928Z,23.57
2019-01-23T00:50:02.372Z,23.27
2019-01-23T00:52:30.798Z,23.87
2019-01-23T00:54:59.250Z,23.50
2019-01-23T00:57:27.744Z,22.43
2019-01-23T00:59:56.202Z,22.33
2019-01-23T01:02:24.621Z,23.67
2019-01-23T01:04:53.060Z,24.30
2019-01-23T01:07:21.486Z,24.33
2019-01-23T01:09:49.940Z,20.47
2019-01-23T01:12:18.357Z,22.13
2019-01-23T01:14:46.796Z,19.80
2019-01-23T01:17:15.320Z,21.90
2019-01-23T01:19:43.765Z,23.73
2019-01-23T01:22:12.257Z,23.20
2019-01-23T01:24:40.698Z,22.03
2019-01-23T01:27:09.212Z,23.73
2019-01-23T01:29:37.640Z,23.33
2019-01-23T01:32:06.078Z,20.77
2019-01-23T01:34:34.493Z,23.63
2019-01-23T01:37:02.953Z,23.30
2019-01-23T01:39:31.373Z,24.40
2019-01-23T01:41:59.822Z,27.37
2019-01-23T01:44:28.292Z,25.20
2019-01-23T01:46:56.741Z,22.37
2019-01-23T01:49:25.273Z,22.00
2019-01-23T01:51:53.692Z,21.13
2019-01-23T01:54:22.289Z,25.23
2019-01-23T01:56:50.722Z,24.00
2019-01-23T02:01:51.532Z,23.17
2019-01-23T02:04:19.956Z,24.87
2019-01-23T02:06:48.405Z,25.23
2019-01-23T02:09:16.846Z,24.47
2019-01-23T02:11:45.296Z,23.30
2019-01-23T02:14:13.705Z,24.03
2019-01-23T02:16:42.148Z,23.77
2019-01-23T02:19:10.558Z,22.70
2019-01-23T02:21:38.981Z,23.10
2019-01-23T02:24:07.449Z,24.53
2019-01-23T02:26:35.882Z,23.83
2019-01-23T02:29:09.486Z,23.40
2019-01-23T02:31:34.786Z,23.30
2019-01-23T02:34:03.222Z,24.00
2019-01-23T02:36:31.642Z,25.50
2019-01-23T02:39:00.076Z,25.23
2019-01-23T02:41:28.494Z,25.17
2019-01-23T02:43:56.939Z,23.40
2019-01-23T02:46:25.360Z,23.77
2019-01-23T02:48:53.802Z,25.20
2019-01-23T02:51:22.226Z,28.97
2019-01-23T02:53:50.734Z,25.93
2019-01-23T02:56:19.148Z,28.30
2019-01-23T02:58:47.589Z,28.40
2019-01-23T03:01:16.004Z,27.67
2019-01-23T03:03:44.439Z,27.30
2019-01-23T03:06:13.071Z,26.20
2019-01-23T03:08:41.490Z,24.27
2019-01-23T03:11:10.156Z,24.53
2019-01-23T03:13:38.564Z,24.73
2019-01-23T03:16:07.004Z,26.00
2019-01-23T03:18:35.437Z,27.23
2019-01-23T03:21:03.963Z,25.20
2019-01-23T03:23:32.500Z,24.80
2019-01-23T03:26:00.947Z,25.90
2019-01-23T03:28:29.389Z,24.20
2019-01-23T03:30:57.850Z,28.40
2019-01-23T03:33:26.282Z,26.50
2019-01-23T03:35:54.806Z,24.17
2019-01-23T03:38:23.236Z,25.40
2019-01-23T03:40:51.740Z,26.57
2019-01-23T03:43:20.172Z,28.47
2019-01-23T03:45:48.623Z,26.50
2019-01-23T03:48:17.038Z,26.87
2019-01-23T03:50:45.492Z,25.63
2019-01-23T03:53:13.908Z,26.50
2019-01-23T03:55:42.605Z,26.57
2019-01-23T03:58:11.021Z,25.90
2019-01-23T04:00:39.545Z,26.47
2019-01-23T04:03:08.105Z,27.70
2019-01-23T04:05:36.625Z,25.27
2019-01-23T04:08:05.114Z,27.67
2019-01-23T04:10:33.533Z,29.73
2019-01-23T04:13:01.985Z,29.40
2019-01-23T04:15:30.480Z,29.50
2019-01-23T04:17:58.925Z,27.17
2019-01-23T04:20:27.365Z,28.03
2019-01-23T04:22:55.861Z,27.67
2019-01-23T04:25:24.293Z,25.03
2019-01-23T04:27:52.793Z,25.23
2019-01-23T04:30:23.247Z,27.40
2019-01-23T04:32:51.768Z,26.53
2019-01-23T04:35:20.335Z,26.57
2019-01-23T04:37:48.926Z,26.43
2019-01-23T04:40:17.448Z,27.50
2019-01-23T04:42:45.944Z,28.27
2019-01-23T04:45:16.432Z,29.00
2019-01-23T04:47:45.306Z,27.80
2019-01-23T04:50:15.588Z,28.00
2019-01-23T04:52:45.648Z,26.13
2019-01-23T04:55:14.096Z,24.67
2019-01-23T04:57:42.521Z,25.83
2019-01-23T05:00:14.340Z,25.97
2019-01-23T05:02:42.763Z,25.73
2019-01-23T05:05:12.027Z,24.63
2019-01-23T05:07:40.460Z,26.30
2019-01-23T05:10:09.206Z,26.67
2019-01-23T05:12:37.683Z,26.77
2019-01-23T05:15:07.968Z,25.70
2019-01-23T05:17:36.393Z,28.50
2019-01-23T05:20:07.946Z,26.20
2019-01-23T05:22:36.386Z,27.23
2019-01-23T05:25:06.365Z,26.47
2019-01-23T05:27:34.786Z,33.30
2019-01-23T05:30:04.369Z,31.30
2019-01-23T05:32:32.867Z,30.60
2019-01-23T05:35:01.312Z,27.00
2019-01-23T05:37:29.741Z,27.70
2019-01-23T05:39:58.182Z,24.60
2019-01-23T05:42:26.621Z,26.20
2019-01-23T05:44:55.066Z,28.17
2019-01-23T05:47:23.504Z,27.77
2019-01-23T05:49:51.925Z,27.10
2019-01-23T05:52:20.391Z,28.80
2019-01-23T05:54:48.819Z,26.73
2019-01-23T05:57:17.342Z,26.87
2019-01-23T05:59:45.759Z,27.17
2019-01-23T06:02:14.213Z,28.10
2019-01-23T06:04:42.625Z,28.43
2019-01-23T06:07:11.141Z,26.93
2019-01-23T06:09:39.650Z,26.47
2019-01-23T06:12:08.072Z,27.93
2019-01-23T06:14:36.536Z,27.77
2019-01-23T06:17:05.047Z,27.20
2019-01-23T06:19:33.480Z,27.63
2019-01-23T06:22:01.925Z,27.30
2019-01-23T06:24:30.355Z,27.93
2019-01-23T06:26:58.831Z,25.93
2019-01-23T06:29:27.260Z,26.97
2019-01-23T06:31:55.691Z,27.00
2019-01-23T06:34:24.157Z,26.17
2019-01-23T06:36:52.580Z,29.10
2019-01-23T06:39:21.010Z,27.50
2019-01-23T06:41:49.447Z,27.13
2019-01-23T06:44:17.922Z,27.67
2019-01-23T06:46:46.335Z,28.07
2019-01-23T06:49:14.798Z,28.20
2019-01-23T06:51:43.233Z,28.20
2019-01-23T06:54:11.676Z,28.10
2019-01-23T06:56:40.164Z,27.47
2019-01-23T06:59:08.608Z,26.57
2019-01-23T07:01:37.025Z,27.53
2019-01-23T07:04:05.472Z,29.63
2019-01-23T07:06:33.985Z,27.50
2019-01-23T07:09:02.495Z,27.80
2019-01-23T07:11:30.921Z,27.10
2019-01-23T07:13:59.402Z,29.97
2019-01-23T07:16:27.824Z,27.90
2019-01-23T07:18:56.282Z,26.83
2019-01-23T07:21:24.719Z,26.77
2019-01-23T07:23:53.172Z,25.93
2019-01-23T07:26:21.645Z,29.23
2019-01-23T07:28:50.116Z,26.57
2019-01-23T07:31:18.668Z,28.10
2019-01-23T07:33:47.132Z,28.33
2019-01-23T07:36:15.539Z,28.83
2019-01-23T07:38:43.972Z,27.13
2019-01-23T07:41:12.417Z,29.70
2019-01-23T07:43:40.859Z,28.20
2019-01-23T07:46:09.423Z,28.63
2019-01-23T07:48:37.882Z,29.87
2019-01-23T07:51:06.328Z,28.43
2019-01-23T07:53:34.754Z,29.03
2019-01-23T07:56:03.334Z,28.77
2019-01-23T07:58:31.759Z,28.37
2019-01-23T08:01:00.328Z,28.20
2019-01-23T08:03:28.740Z,27.93
2019-01-23T08:05:57.200Z,31.20
2019-01-23T08:08:25.628Z,30.20
2019-01-23T08:10:54.070Z,29.90
2019-01-23T08:13:22.496Z,28.60
2019-01-23T08:15:50.957Z,29.37
2019-01-23T08:18:19.413Z,25.40
2019-01-23T08:20:47.893Z,29.00
2019-01-23T08:23:16.300Z,29.83
2019-01-23T08:25:44.728Z,30.27
2019-01-23T08:28:14.468Z,31.87
2019-01-23T08:30:42.900Z,28.23
2019-01-23T08:33:11.359Z,31.27
2019-01-23T08:35:39.865Z,27.93
2019-01-23T08:38:08.304Z,30.40
2019-01-23T08:40:36.720Z,30.47
2019-01-23T08:43:05.894Z,32.87
2019-01-23T08:45:34.489Z,31.20
2019-01-23T08:48:03.012Z,29.73
2019-01-23T08:50:37.293Z,30.03
2019-01-23T08:53:06.063Z,29.50
2019-01-23T08:55:34.494Z,32.00
2019-01-23T08:58:02.997Z,29.27
2019-01-23T09:00:31.447Z,29.07
2019-01-23T09:03:00.086Z,27.10
2019-01-23T09:05:28.510Z,27.90
2019-01-23T09:07:57.712Z,28.40
2019-01-23T09:10:28.134Z,26.10
2019-01-23T09:12:56.706Z,27.20
2019-01-23T09:15:25.212Z,24.20
2019-01-23T09:17:53.721Z,27.20
2019-01-23T09:20:23.590Z,27.23
2019-01-23T09:22:52.083Z,24.50
2019-01-23T09:25:22.871Z,28.13
2019-01-23T09:27:51.530Z,29.07
2019-01-23T09:30:28.883Z,28.50
2019-01-23T09:33:12.705Z,26.57
2019-01-23T09:36:05.349Z,30.97
2019-01-23T09:38:56.552Z,26.57
2019-01-23T09:41:46.213Z,26.80
2019-01-23T09:44:26.518Z,28.87
2019-01-23T09:47:18.493Z,28.07
2019-01-23T09:50:11.221Z,28.90
2019-01-23T09:52:51.439Z,28.27
2019-01-23T09:55:19.891Z,25.57
2019-01-23T09:57:48.950Z,30.17
2019-01-23T10:00:23.342Z,26.67
2019-01-23T10:02:51.852Z,27.33
2019-01-23T10:05:20.310Z,27.83
2019-01-23T10:07:48.784Z,29.67
2019-01-23T10:10:21.754Z,27.03
2019-01-23T10:12:50.153Z,26.57
2019-01-23T10:15:21.690Z,28.87
2019-01-23T10:17:50.133Z,26.53
2019-01-23T10:20:18.638Z,24.43
2019-01-23T10:22:47.776Z,26.57
2019-01-23T10:25:16.936Z,29.03
2019-01-23T10:27:45.544Z,26.30
2019-01-23T10:30:15.314Z,26.17
2019-01-23T10:32:43.837Z,26.87
2019-01-23T10:35:15.360Z,25.60
2019-01-23T10:37:43.865Z,27.30
2019-01-23T10:40:19.139Z,27.53
2019-01-23T10:42:47.580Z,26.37
2019-01-23T10:45:16.157Z,24.03
2019-01-23T10:47:45.147Z,30.03
2019-01-23T10:50:16.499Z,29.80
2019-01-23T10:52:45.276Z,28.23
2019-01-23T10:55:13.953Z,28.90
2019-01-23T10:57:42.723Z,30.97
2019-01-23T11:00:19.720Z,30.43
2019-01-23T11:02:48.233Z,28.50
2019-01-23T11:05:19.458Z,26.90
2019-01-23T11:07:48.065Z,26.80
2019-01-23T11:10:22.041Z,28.50
2019-01-23T11:12:50.659Z,30.30
2019-01-23T11:15:19.347Z,27.50
2019-01-23T11:17:47.865Z,31.27
2019-01-23T11:20:18.336Z,29.03
2019-01-23T11:22:46.859Z,26.37
2019-01-23T11:25:16.021Z,29.27
2019-01-23T11:27:45.301Z,28.53
2019-01-23T11:30:19.512Z,33.33
2019-01-23T11:32:48.213Z,29.50
2019-01-23T11:35:16.928Z,31.27
2019-01-23T11:37:45.612Z,31.00
2019-01-23T11:40:20.180Z,31.30
2019-01-23T11:42:48.632Z,30.90
2019-01-23T11:45:17.130Z,33.03
2019-01-23T11:47:45.800Z,29.23
2019-01-23T11:50:21.284Z,30.13
2019-01-23T11:52:47.367Z,31.00
2019-01-23T11:55:16.629Z,31.37
2019-01-23T11:57:45.036Z,30.40
2019-01-23T12:00:18.940Z,31.07
2019-01-23T12:02:48.918Z,26.00
2019-01-23T12:05:19.210Z,30.63
2019-01-23T12:07:48.100Z,30.10
2019-01-23T12:10:19.155Z,31.27
2019-01-23T12:12:47.837Z,26.17
2019-01-23T12:15:18.837Z,31.17
2019-01-23T12:17:47.349Z,28.13
2019-01-23T12:20:15.905Z,27.10
2019-01-23T12:22:44.526Z,29.87
2019-01-23T12:25:14.249Z,30.10
2019-01-23T12:27:43.088Z,27.77
2019-01-23T12:30:20.363Z,27.50
2019-01-23T12:32:48.819Z,28.30
2019-01-23T12:35:17.385Z,31.70
2019-01-23T12:37:45.824Z,27.37
2019-01-23T12:40:16.235Z,26.63
2019-01-23T12:42:44.825Z,26.90
2019-01-23T12:45:22.201Z,27.83
2019-01-23T12:47:50.902Z,32.20
2019-01-23T12:50:24.618Z,29.50
2019-01-23T12:52:53.155Z,29.07
2019-01-23T12:55:21.714Z,29.20
2019-01-23T12:57:50.202Z,30.67
2019-01-23T13:00:21.747Z,32.60
2019-01-23T13:02:50.359Z,31.03
2019-01-23T13:05:20.813Z,28.07
2019-01-23T13:07:49.354Z,29.13
2019-01-23T13:10:22.500Z,29.57
2019-01-23T13:12:51.868Z,29.30
2019-01-23T13:15:22.433Z,28.57
2019-01-23T13:17:51.376Z,29.20
2019-01-23T13:20:21.734Z,28.77
2019-01-23T13:22:50.255Z,27.50
2019-01-23T13:25:21.218Z,29.37
2019-01-23T13:27:49.737Z,29.20
2019-01-23T13:30:20.323Z,28.67
2019-01-23T13:32:49.029Z,29.80
2019-01-23T13:35:20.453Z,25.87
2019-01-23T13:37:48.890Z,31.00
2019-01-23T13:40:23.003Z,29.40
2019-01-23T13:42:51.602Z,30.73
2019-01-23T13:45:20.382Z,29.93
2019-01-23T13:47:48.885Z,28.50
2019-01-23T13:50:17.476Z,26.17
2019-01-23T13:52:45.967Z,28.93
2019-01-23T13:55:17.569Z,26.10
2019-01-23T13:57:45.994Z,26.73
2019-01-23T14:00:17.656Z,26.93
2019-01-23T14:02:46.250Z,26.53
2019-01-23T14:05:15.153Z,26.20
2019-01-23T14:07:43.658Z,28.20
2019-01-23T14:10:16.886Z,25.63
2019-01-23T14:12:45.558Z,25.63
2019-01-23T14:15:23.319Z,25.50
2019-01-23T14:17:51.800Z,26.83
2019-01-23T14:20:20.394Z,25.37
2019-01-23T14:22:48.923Z,26.97
2019-01-23T14:25:17.719Z,26.20
2019-01-23T14:27:46.306Z,24.77
2019-01-23T14:30:20.882Z,29.40
2019-01-23T14:32:49.400Z,26.67
2019-01-23T14:35:17.972Z,25.10
2019-01-23T14:37:46.514Z,26.20
2019-01-23T14:40:15.199Z,26.80
2019-01-23T14:42:43.725Z,27.83
2019-01-23T14:45:17.694Z,25.50
2019-01-23T14:47:46.405Z,27.80
2019-01-23T14:50:16.906Z,27.80
2019-01-23T14:52:46.750Z,27.17
2019-01-23T14:55:15.511Z,28.73
2019-01-23T14:57:44.199Z,26.47
2019-01-23T15:00:18.547Z,25.23
2019-01-23T15:02:47.073Z,28.70
2019-01-23T15:05:16.066Z,26.80
2019-01-23T15:07:44.647Z,25.73
2019-01-23T15:10:18.613Z,27.43
2019-01-23T15:12:47.294Z,25.50
2019-01-23T15:15:16.570Z,23.13
2019-01-23T15:17:45.135Z,25.00
2019-01-23T15:20:16.789Z,25.73
2019-01-23T15:22:45.296Z,25.60
2019-01-23T15:25:14.093Z,22.83
2019-01-23T15:27:42.629Z,26.40
2019-01-23T15:30:14.550Z,25.03
2019-01-23T15:32:43.097Z,22.93
2019-01-23T15:35:12.184Z,24.77
2019-01-23T15:37:40.708Z,26.10
2019-01-23T15:40:15.605Z,23.70
2019-01-23T15:42:44.102Z,27.33
2019-01-23T15:45:12.871Z,24.97
2019-01-23T15:47:41.454Z,27.70
2019-01-23T15:50:15.788Z,25.47
2019-01-23T15:52:44.359Z,27.13
2019-01-23T15:55:16.002Z,26.80
2019-01-23T15:57:44.546Z,26.80
2019-01-23T16:00:24.162Z,25.20
2019-01-23T16:02:52.601Z,26.33
2019-01-23T16:05:21.120Z,27.77
2019-01-23T16:07:49.621Z,26.17
2019-01-23T16:10:23.296Z,27.30
2019-01-23T16:12:51.998Z,26.87
2019-01-23T16:15:23.043Z,28.43
2019-01-23T16:17:51.642Z,28.17
2019-01-23T16:20:20.156Z,28.40
2019-01-23T16:22:49.037Z,28.47
2019-01-23T16:25:18.220Z,30.27
2019-01-23T16:27:47.023Z,30.13
2019-01-23T16:30:18.521Z,28.63
2019-01-23T16:32:47.093Z,27.80
2019-01-23T16:35:15.832Z,29.93
2019-01-23T16:37:44.745Z,32.27
2019-01-23T16:40:13.398Z,31.20
2019-01-23T16:42:42.010Z,30.47
2019-01-23T16:45:13.517Z,34.43
2019-01-23T16:47:42.343Z,29.47
2019-01-23T16:50:22.440Z,30.77
2019-01-23T16:52:51.174Z,31.27
2019-01-23T16:55:19.930Z,28.43
2019-01-23T16:57:49.061Z,28.30
2019-01-23T17:00:25.683Z,31.03
2019-01-23T17:02:54.598Z,30.63
2019-01-23T17:05:25.509Z,33.10
2019-01-23T17:07:54.323Z,28.60
2019-01-23T17:10:24.778Z,31.50
2019-01-23T17:12:58.748Z,33.40
2019-01-23T17:15:27.634Z,33.13
2019-01-23T17:17:56.107Z,33.90
2019-01-23T17:20:30.738Z,35.87
2019-01-23T17:22:59.253Z,34.90
2019-01-23T17:25:27.897Z,29.90
2019-01-23T17:27:56.453Z,32.13
2019-01-23T17:30:25.254Z,33.23
2019-01-23T17:32:53.855Z,35.90
2019-01-23T17:35:22.821Z,31.80
2019-01-23T17:37:51.378Z,35.30
2019-01-23T17:40:24.509Z,40.87
2019-01-23T17:42:53.117Z,37.23
2019-01-23T17:45:35.274Z,37.23
2019-01-23T17:48:05.408Z,38.87
2019-01-23T17:50:33.981Z,36.73
2019-01-23T17:53:02.435Z,39.17
2019-01-23T17:55:33.489Z,33.53
2019-01-23T17:58:02.107Z,35.70
2019-01-23T18:00:33.138Z,37.77
2019-01-23T18:03:02.848Z,39.30
2019-01-23T18:05:31.537Z,38.73
2019-01-23T18:07:59.994Z,34.97
2019-01-23T18:10:28.534Z,37.53
2019-01-23T18:12:57.289Z,39.27
2019-01-23T18:15:35.252Z,38.00
2019-01-23T18:18:03.946Z,35.10
2019-01-23T18:20:32.466Z,36.13
2019-01-23T18:23:01.075Z,33.57
2019-01-23T18:25:29.956Z,37.20
2019-01-23T18:27:58.377Z,35.80
2019-01-23T18:30:38.697Z,33.90
2019-01-23T18:33:10.565Z,37.23
2019-01-23T18:35:45.257Z,33.30
2019-01-23T18:38:22.666Z,35.17
2019-01-23T18:41:13.616Z,34.60
2019-01-23T18:44:03.241Z,34.90
2019-01-23T18:46:49.662Z,32.53
2019-01-23T18:49:49.945Z,35.63
2019-01-23T18:52:18.985Z,33.30
2019-01-23T18:54:47.702Z,34.93
2019-01-23T18:57:22.194Z,36.00
2019-01-23T18:59:50.644Z,32.77
2019-01-23T19:02:20.114Z,34.83
2019-01-23T19:04:48.644Z,33.40
2019-01-23T19:07:17.664Z,30.77
2019-01-23T19:09:46.092Z,32.03
2019-01-23T19:12:15.216Z,30.97
2019-01-23T19:14:43.730Z,31.03
2019-01-23T19:17:12.498Z,33.50
2019-01-23T19:19:41.374Z,32.97
2019-01-23T19:22:10.148Z,30.93
2019-01-23T19:24:38.946Z,33.80
2019-01-23T19:27:08.187Z,32.53
2019-01-23T19:29:36.617Z,30.27
2019-01-23T19:32:06.648Z,34.30
2019-01-23T19:34:35.118Z,32.30
2019-01-23T19:37:04.609Z,30.00
2019-01-23T19:39:33.447Z,33.63
2019-01-23T19:42:02.074Z,31.27
2019-01-23T19:44:30.703Z,31.10
2019-01-23T19:46:59.368Z,33.20
2019-01-23T19:49:29.160Z,32.80
2019-01-23T19:51:57.814Z,34.47
2019-01-23T19:54:26.463Z,32.07
2019-01-23T19:56:54.903Z,33.17
2019-01-23T19:59:23.562Z,32.40
2019-01-23T20:01:52.138Z,31.90
2019-01-23T20:04:21.817Z,31.23
2019-01-23T20:06:50.496Z,34.20
2019-01-23T20:09:19.152Z,31.83
2019-01-23T20:11:47.736Z,35.83
2019-01-23T20:14:16.351Z,34.17
2019-01-23T20:16:44.828Z,31.17
2019-01-23T20:19:13.367Z,30.57
2019-01-23T20:21:42.089Z,30.33
2019-01-23T20:24:10.561Z,31.50
2019-01-23T20:26:39.265Z,34.00
2019-01-23T20:29:07.899Z,32.27
2019-01-23T20:31:36.703Z,31.93
2019-01-23T20:34:05.778Z,33.97
2019-01-23T20:36:34.430Z,32.10
2019-01-23T20:39:04.519Z,32.27
2019-01-23T20:41:34.125Z,34.67
2019-01-23T20:44:02.644Z,32.10
2019-01-23T20:46:31.376Z,32.43
2019-01-23T20:49:00.009Z,33.87
2019-01-23T20:51:28.675Z,32.13
2019-01-23T20:53:57.165Z,34.93
2019-01-23T20:56:25.809Z,35.83
2019-01-23T20:58:54.705Z,33.27
2019-01-23T21:01:23.252Z,38.90
2019-01-23T21:03:51.698Z,36.63
2019-01-23T21:06:20.267Z,38.13
2019-01-23T21:08:48.991Z,37.03
2019-01-23T21:11:17.578Z,34.40
2019-01-23T21:13:46.075Z,35.03
2019-01-23T21:16:14.537Z,35.87
2019-01-23T21:18:43.192Z,36.80
2019-01-23T21:21:11.725Z,31.30
2019-01-23T21:23:40.183Z,36.93
2019-01-23T21:26:08.650Z,37.47
2019-01-23T21:28:37.086Z,31.80
2019-01-23T21:31:05.698Z,39.07
2019-01-23T21:33:34.140Z,40.67
2019-01-23T21:36:02.753Z,36.10
2019-01-23T21:38:31.266Z,35.53
2019-01-23T21:40:59.736Z,37.37
2019-01-23T21:43:28.188Z,36.57
2019-01-23T21:45:56.737Z,34.17
2019-01-23T21:48:25.223Z,35.70
2019-01-23T21:50:53.680Z,38.27
2019-01-23T21:53:22.218Z,38.70
2019-01-23T21:55:50.798Z,35.87
2019-01-23T21:58:19.350Z,39.50
2019-01-23T22:00:47.958Z,35.43
2019-01-23T22:03:16.657Z,37.70
2019-01-23T22:05:45.104Z,40.67
2019-01-23T22:08:13.697Z,39.93
2019-01-23T22:10:42.353Z,38.90
2019-01-23T22:13:10.817Z,39.17
2019-01-23T22:15:39.410Z,36.50
2019-01-23T22:18:08.603Z,38.60
2019-01-23T22:20:37.095Z,37.37
2019-01-23T22:23:05.703Z,40.47
2019-01-23T22:25:34.277Z,41.13
2019-01-23T22:28:02.717Z,37.00
2019-01-23T22:30:33.402Z,35.10
2019-01-23T22:33:01.877Z,39.27
2019-01-23T22:35:30.361Z,37.30
2019-01-23T22:37:58.846Z,35.87
2019-01-23T22:40:27.392Z,37.47
2019-01-23T22:42:55.826Z,39.17
2019-01-23T22:45:24.299Z,36.90
2019-01-23T22:47:52.797Z,38.80
2019-01-23T22:50:26.077Z,37.90
2019-01-23T22:52:54.649Z,39.77
2019-01-23T22:55:23.314Z,37.07
2019-01-23T22:57:51.728Z,42.73
2019-01-23T23:00:25.913Z,39.23
2019-01-23T23:02:54.534Z,37.60
2019-01-23T23:05:23.019Z,40.50
2019-01-23T23:07:51.479Z,37.93
2019-01-23T23:10:20.139Z,38.10
2019-01-23T23:12:48.665Z,41.33
2019-01-23T23:15:17.855Z,39.60
2019-01-23T23:17:46.368Z,38.00
2019-01-23T23:20:15.225Z,37.80
2019-01-23T23:22:43.668Z,38.93
2019-01-23T23:25:13.037Z,40.60
2019-01-23T23:27:41.508Z,38.87
2019-01-23T23:30:21.405Z,40.83
2019-01-23T23:32:49.931Z,38.10
2019-01-23T23:35:18.354Z,41.13
2019-01-23T23:37:46.836Z,40.40
2019-01-23T23:40:16.178Z,37.50
2019-01-23T23:42:44.808Z,41.37
2019-01-23T23:45:20.115Z,37.03
2019-01-23T23:47:48.865Z,40.60
2019-01-23T23:50:17.873Z,41.37
2019-01-23T23:52:46.568Z,38.53
2019-01-23T23:55:17.877Z,40.93
2019-01-23T23:57:46.385Z,40.90
